createdAt,value
2018-03-25T00:00:47.300Z,0
2018-03-25T00:01:32.399Z,0
2018-03-25T00:02:32.413Z,0
2018-03-25T00:03:32.182Z,0
2018-03-25T00:04:32.442Z,0
2018-03-25T00:05:32.454Z,0
2018-03-25T00:06:32.723Z,0
2018-03-25T00:07:47.399Z,0
2018-03-25T00:08:32.754Z,0
2018-03-25T00:09:32.525Z,0
2018-03-25T00:10:32.778Z,0
2018-03-25T00:11:32.534Z,0
2018-03-25T00:12:32.545Z,0
2018-03-25T00:14:32.637Z,0
2018-03-25T00:15:32.857Z,0
2018-03-25T00:16:32.614Z,0
2018-03-25T00:17:32.664Z,0
2018-03-25T00:18:32.128Z,0
2018-03-25T00:19:32.901Z,0
2018-03-25T00:21:32.939Z,0
2018-03-25T00:22:32.945Z,0
2018-03-25T00:23:47.627Z,0
2018-03-25T00:24:32.745Z,0
2018-03-25T00:25:32.989Z,0
2018-03-25T00:26:32.484Z,0
2018-03-25T00:27:33.022Z,0
2018-03-25T00:28:32.775Z,0
2018-03-25T00:29:32.785Z,0
2018-03-25T00:30:32.795Z,0
2018-03-25T00:31:33.084Z,0
2018-03-25T00:33:02.154Z,0
2018-03-25T00:33:32.839Z,0
2018-03-25T00:34:32.860Z,0
2018-03-25T00:35:33.128Z,0
2018-03-25T00:36:32.885Z,0
2018-03-25T00:37:47.551Z,0
2018-03-25T00:38:32.653Z,0
2018-03-25T00:39:47.838Z,0
2018-03-25T00:40:32.933Z,0
2018-03-25T00:41:33.206Z,0
2018-03-25T00:42:33.058Z,0
2018-03-25T00:43:32.719Z,0
2018-03-25T00:44:32.987Z,0
2018-03-25T00:45:33.007Z,0
2018-03-25T00:46:33.281Z,0
2018-03-25T00:47:33.031Z,0
2018-03-25T00:48:47.705Z,0
2018-03-25T00:49:32.805Z,0
2018-03-25T00:50:33.069Z,0
2018-03-25T00:51:47.745Z,0
2018-03-25T00:52:33.361Z,0
2018-03-25T00:53:48.034Z,0
2018-03-25T00:54:33.181Z,0
2018-03-25T00:55:48.068Z,0
2018-03-25T00:56:33.410Z,0
2018-03-25T00:57:33.177Z,0
2018-03-25T00:58:33.180Z,0
2018-03-25T00:59:33.530Z,0
2018-03-25T01:00:33.209Z,0
2018-03-25T01:01:33.484Z,0
2018-03-25T01:02:33.494Z,0
2018-03-25T01:03:33.250Z,0
2018-03-25T01:04:48.179Z,0
2018-03-25T01:05:33.542Z,0
2018-03-25T01:06:33.555Z,0
2018-03-25T01:07:47.962Z,0
2018-03-25T01:08:33.065Z,0
2018-03-25T01:09:33.335Z,0
2018-03-25T01:10:33.607Z,0
2018-03-25T01:11:33.627Z,0
2018-03-25T01:12:33.380Z,0
2018-03-25T01:13:33.652Z,0
2018-03-25T01:14:33.659Z,0
2018-03-25T01:15:33.673Z,0
2018-03-25T01:16:33.426Z,0
2018-03-25T01:17:33.696Z,0
2018-03-25T01:18:48.377Z,0
2018-03-25T01:19:33.470Z,0
2018-03-25T01:20:48.395Z,0
2018-03-25T01:22:33.506Z,0
2018-03-25T01:23:33.003Z,0
2018-03-25T01:25:33.547Z,0
2018-03-25T01:26:33.819Z,0
2018-03-25T01:27:48.498Z,0
2018-03-25T01:28:33.594Z,0
2018-03-25T01:29:33.343Z,0
2018-03-25T01:30:33.619Z,0
2018-03-25T01:31:33.990Z,0
2018-03-25T01:32:48.566Z,0
2018-03-25T01:33:33.922Z,0
2018-03-25T01:34:33.924Z,0
2018-03-25T01:35:48.605Z,0
2018-03-25T01:36:33.953Z,0
2018-03-25T01:37:33.975Z,0
2018-03-25T01:38:48.637Z,0
2018-03-25T01:39:33.734Z,0
2018-03-25T01:40:34.014Z,0
2018-03-25T01:42:48.437Z,0
2018-03-25T01:43:48.449Z,0
2018-03-25T01:44:48.720Z,0
2018-03-25T01:45:33.810Z,0
2018-03-25T01:46:33.670Z,0
2018-03-25T01:47:33.842Z,0
2018-03-25T01:49:33.873Z,0
2018-03-25T01:50:48.800Z,0
2018-03-25T01:51:34.160Z,0
2018-03-25T01:52:34.169Z,0
2018-03-25T01:53:34.183Z,0
2018-03-25T01:54:33.683Z,0
2018-03-25T01:55:34.207Z,0
2018-03-25T01:56:33.964Z,0
2018-03-25T01:57:33.456Z,0
2018-03-25T01:58:33.987Z,0
2018-03-25T01:59:33.746Z,0
2018-03-25T02:00:34.016Z,0
2018-03-25T02:01:48.949Z,0
2018-03-25T02:03:34.316Z,0
2018-03-25T02:04:34.072Z,0
2018-03-25T02:05:34.339Z,0
2018-03-25T02:06:34.361Z,0
2018-03-25T02:08:03.684Z,0
2018-03-25T02:08:34.120Z,0
2018-03-25T02:09:34.403Z,0
2018-03-25T02:10:34.419Z,0
2018-03-25T02:11:48.821Z,0
2018-03-25T02:12:34.176Z,0
2018-03-25T02:13:33.940Z,0
2018-03-25T02:14:48.599Z,0
2018-03-25T02:15:34.219Z,0
2018-03-25T02:16:33.966Z,0
2018-03-25T02:17:49.152Z,0
2018-03-25T02:18:34.259Z,0
2018-03-25T02:19:48.931Z,0
2018-03-25T02:20:34.537Z,0
2018-03-25T02:21:34.292Z,0
2018-03-25T02:22:33.791Z,0
2018-03-25T02:23:48.972Z,0
2018-03-25T02:24:34.334Z,0
2018-03-25T02:25:34.350Z,0
2018-03-25T02:26:34.622Z,0
2018-03-25T02:27:34.377Z,0
2018-03-25T02:28:34.641Z,0
2018-03-25T02:29:34.146Z,0
2018-03-25T02:30:49.347Z,0
2018-03-25T02:31:34.287Z,0
2018-03-25T02:32:34.706Z,0
2018-03-25T02:33:34.246Z,0
2018-03-25T02:34:34.466Z,0
2018-03-25T02:35:34.748Z,0
2018-03-25T02:36:49.405Z,0
2018-03-25T02:37:34.767Z,0
2018-03-25T02:38:34.524Z,0
2018-03-25T02:39:49.185Z,0
2018-03-25T02:40:49.200Z,0
2018-03-25T02:41:34.301Z,0
2018-03-25T02:42:34.840Z,0
2018-03-25T02:43:49.513Z,0
2018-03-25T02:44:34.951Z,0
2018-03-25T02:45:34.907Z,0
2018-03-25T02:46:49.545Z,0
2018-03-25T02:47:34.376Z,0
2018-03-25T02:48:34.916Z,0
2018-03-25T02:49:49.062Z,0
2018-03-25T02:50:34.432Z,0
2018-03-25T02:51:34.701Z,0
2018-03-25T02:52:34.974Z,0
2018-03-25T02:53:34.731Z,0
2018-03-25T02:54:49.654Z,0
2018-03-25T02:55:49.665Z,0
2018-03-25T02:56:35.010Z,0
2018-03-25T02:57:35.034Z,0
2018-03-25T02:58:34.799Z,0
2018-03-25T02:59:35.089Z,0
2018-03-25T03:00:49.729Z,0
2018-03-25T03:01:49.768Z,0
2018-03-25T03:02:35.193Z,0
2018-03-25T03:04:35.142Z,0
2018-03-25T03:05:34.875Z,0
2018-03-25T03:06:34.636Z,0
2018-03-25T03:07:34.891Z,0
2018-03-25T03:08:34.909Z,0
2018-03-25T03:09:34.761Z,0
2018-03-25T03:10:49.844Z,0
2018-03-25T03:11:49.609Z,0
2018-03-25T03:12:34.967Z,0
2018-03-25T03:13:35.236Z,0
2018-03-25T03:14:34.985Z,0
2018-03-25T03:15:34.999Z,0
2018-03-25T03:16:34.754Z,0
2018-03-25T03:17:49.936Z,0
2018-03-25T03:18:35.351Z,0
2018-03-25T03:19:35.310Z,0
2018-03-25T03:20:35.332Z,0
2018-03-25T03:21:35.337Z,0
2018-03-25T03:22:35.087Z,0
2018-03-25T03:23:35.361Z,0
2018-03-25T03:24:35.372Z,0
2018-03-25T03:27:49.806Z,0
2018-03-25T03:28:34.905Z,0
2018-03-25T03:29:50.204Z,0
2018-03-25T03:30:35.470Z,0
2018-03-25T03:31:35.225Z,0
2018-03-25T03:32:35.476Z,0
2018-03-25T03:33:34.981Z,0
2018-03-25T03:34:35.501Z,0
2018-03-25T03:35:35.517Z,0
2018-03-25T03:36:35.281Z,0
2018-03-25T03:37:35.542Z,0
2018-03-25T03:38:35.579Z,0
2018-03-25T03:39:35.044Z,0
2018-03-25T03:40:35.325Z,0
2018-03-25T03:41:35.592Z,0
2018-03-25T03:42:50.014Z,0
2018-03-25T03:43:35.095Z,0
2018-03-25T03:44:35.648Z,0
2018-03-25T03:45:35.641Z,0
2018-03-25T03:46:35.655Z,0
2018-03-25T03:47:35.665Z,0
2018-03-25T03:48:35.681Z,0
2018-03-25T03:49:35.436Z,0
2018-03-25T03:50:34.928Z,0
2018-03-25T03:51:35.721Z,0
2018-03-25T03:52:35.725Z,0
2018-03-25T03:53:35.740Z,0
2018-03-25T03:54:35.501Z,0
2018-03-25T03:55:35.511Z,0
2018-03-25T03:56:50.442Z,0
2018-03-25T03:57:35.536Z,0
2018-03-25T03:58:50.465Z,0
2018-03-25T03:59:35.825Z,0
2018-03-25T04:00:50.235Z,0
2018-03-25T04:01:35.331Z,0
2018-03-25T04:02:35.610Z,0
2018-03-25T04:03:35.614Z,0
2018-03-25T04:04:35.627Z,0
2018-03-25T04:05:50.036Z,0
2018-03-25T04:06:35.652Z,0
2018-03-25T04:07:35.919Z,0
2018-03-25T04:08:50.590Z,0
2018-03-25T04:09:35.171Z,0
2018-03-25T04:10:35.960Z,0
2018-03-25T04:11:35.453Z,0
2018-03-25T04:12:50.389Z,0
2018-03-25T04:13:35.999Z,0
2018-03-25T04:15:05.329Z,0
2018-03-25T04:16:35.522Z,0
2018-03-25T04:17:36.051Z,0
2018-03-25T04:19:50.735Z,0
2018-03-25T04:20:36.092Z,0
2018-03-25T04:22:35.855Z,0
2018-03-25T04:23:36.127Z,0
2018-03-25T04:24:36.140Z,0
2018-03-25T04:25:50.550Z,0
2018-03-25T04:26:35.906Z,0
2018-03-25T04:28:36.182Z,0
2018-03-25T04:29:36.199Z,0
2018-03-25T04:30:50.974Z,0
2018-03-25T04:31:35.969Z,0
2018-03-25T04:32:36.242Z,0
2018-03-25T04:33:36.259Z,0
2018-03-25T04:34:36.268Z,0
2018-03-25T04:35:36.023Z,0
2018-03-25T04:36:36.287Z,0
2018-03-25T04:37:50.958Z,0
2018-03-25T04:38:36.058Z,0
2018-03-25T04:39:36.076Z,0
2018-03-25T04:40:51.009Z,0
2018-03-25T04:41:36.092Z,0
2018-03-25T04:42:36.364Z,0
2018-03-25T04:43:36.121Z,0
2018-03-25T04:44:35.875Z,0
2018-03-25T04:45:50.808Z,0
2018-03-25T04:46:36.159Z,0
2018-03-25T04:47:36.168Z,5
2018-03-25T04:48:36.452Z,5
2018-03-25T04:49:35.679Z,5
2018-03-25T04:50:36.215Z,0
2018-03-25T04:51:36.481Z,0
2018-03-25T04:52:51.154Z,0
2018-03-25T04:53:35.989Z,0
2018-03-25T04:55:36.275Z,5
2018-03-25T04:56:36.289Z,5
2018-03-25T04:57:36.566Z,5
2018-03-25T04:58:36.568Z,5
2018-03-25T04:59:36.319Z,5
2018-03-25T05:00:36.598Z,5
2018-03-25T05:01:36.349Z,5
2018-03-25T05:02:36.108Z,10
2018-03-25T05:03:36.379Z,10
2018-03-25T05:04:36.389Z,10
2018-03-25T05:05:36.657Z,10
2018-03-25T05:07:51.349Z,15
2018-03-25T05:08:36.437Z,15
2018-03-25T05:09:36.716Z,20
2018-03-25T05:10:36.462Z,20
2018-03-25T05:11:50.872Z,20
2018-03-25T05:12:36.756Z,20
2018-03-25T05:13:36.773Z,25
2018-03-25T05:14:36.509Z,25
2018-03-25T05:15:36.534Z,25
2018-03-25T05:16:36.810Z,25
2018-03-25T05:17:51.213Z,25
2018-03-25T05:18:36.301Z,30
2018-03-25T05:19:36.836Z,30
2018-03-25T05:21:36.084Z,35
2018-03-25T05:23:36.635Z,40
2018-03-25T05:24:36.664Z,40
2018-03-25T05:25:36.918Z,45
2018-03-25T05:26:36.668Z,50
2018-03-25T05:27:36.953Z,50
2018-03-25T05:28:36.693Z,50
2018-03-25T05:29:36.449Z,55
2018-03-25T05:30:36.977Z,55
2018-03-25T05:31:36.997Z,55
2018-03-25T05:32:37.011Z,60
2018-03-25T05:34:06.379Z,65
2018-03-25T05:34:37.035Z,65
2018-03-25T05:35:37.048Z,70
2018-03-25T05:36:37.061Z,70
2018-03-25T05:37:51.740Z,75
2018-03-25T05:38:37.087Z,80
2018-03-25T05:39:37.205Z,90
2018-03-25T05:40:37.114Z,95
2018-03-25T05:41:51.782Z,100
2018-03-25T05:42:37.139Z,100
2018-03-25T05:43:36.895Z,105
2018-03-25T05:44:37.168Z,110
2018-03-25T05:45:36.921Z,110
2018-03-25T05:46:36.709Z,110
2018-03-25T05:47:37.204Z,110
2018-03-25T05:48:37.234Z,125
2018-03-25T05:50:37.006Z,125
2018-03-25T05:51:37.006Z,130
2018-03-25T05:52:37.317Z,140
2018-03-25T05:53:51.693Z,135
2018-03-25T05:54:51.706Z,130
2018-03-25T05:55:51.719Z,130
2018-03-25T05:56:51.999Z,135
2018-03-25T05:57:37.101Z,140
2018-03-25T05:58:37.367Z,140
2018-03-25T05:59:37.125Z,150
2018-03-25T06:00:37.409Z,160
2018-03-25T06:01:52.072Z,170
2018-03-25T06:02:37.172Z,175
2018-03-25T06:03:37.184Z,180
2018-03-25T06:04:52.118Z,190
2018-03-25T06:06:06.530Z,200
2018-03-25T06:06:37.486Z,200
2018-03-25T06:07:37.244Z,200
2018-03-25T06:08:37.265Z,205
2018-03-25T06:09:37.536Z,210
2018-03-25T06:10:37.299Z,210
2018-03-25T06:11:37.573Z,215
2018-03-25T06:12:37.582Z,220
2018-03-25T06:13:37.607Z,220
2018-03-25T06:14:37.382Z,225
2018-03-25T06:15:37.639Z,230
2018-03-25T06:16:37.656Z,230
2018-03-25T06:17:37.412Z,235
2018-03-25T06:18:37.695Z,240
2018-03-25T06:19:52.371Z,245
2018-03-25T06:20:51.869Z,250
2018-03-25T06:21:52.146Z,260
2018-03-25T06:23:37.848Z,260
2018-03-25T06:24:37.804Z,275
2018-03-25T06:25:37.825Z,290
2018-03-25T06:26:37.848Z,315
2018-03-25T06:27:37.875Z,375
2018-03-25T06:28:37.907Z,495
2018-03-25T06:29:52.557Z,660
2018-03-25T06:30:37.939Z,655
2018-03-25T06:31:37.950Z,560
2018-03-25T06:32:37.964Z,535
2018-03-25T06:33:37.748Z,535
2018-03-25T06:34:37.493Z,550
2018-03-25T06:35:38.034Z,545
2018-03-25T06:36:38.051Z,540
2018-03-25T06:38:37.851Z,565
2018-03-25T06:39:52.783Z,565
2018-03-25T06:40:37.872Z,575
2018-03-25T06:41:37.637Z,600
2018-03-25T06:42:37.924Z,610
2018-03-25T06:43:52.862Z,595
2018-03-25T06:44:37.967Z,585
2018-03-25T06:45:37.465Z,570
2018-03-25T06:46:38.282Z,575
2018-03-25T06:47:38.030Z,580
2018-03-25T06:48:38.502Z,600
2018-03-25T06:49:38.335Z,595
2018-03-25T06:50:38.369Z,595
2018-03-25T06:51:38.381Z,610
2018-03-25T06:52:53.064Z,615
2018-03-25T06:54:37.932Z,605
2018-03-25T06:55:38.231Z,595
2018-03-25T06:56:38.239Z,605
2018-03-25T06:57:38.264Z,615
2018-03-25T06:58:38.286Z,640
2018-03-25T06:59:52.711Z,660
2018-03-25T07:00:38.595Z,660
2018-03-25T07:01:53.289Z,645
2018-03-25T07:02:38.383Z,640
2018-03-25T07:04:38.447Z,620
2018-03-25T07:05:38.450Z,640
2018-03-25T07:06:38.733Z,655
2018-03-25T07:07:38.502Z,655
2018-03-25T07:08:53.186Z,675
2018-03-25T07:09:38.809Z,700
2018-03-25T07:10:38.836Z,720
2018-03-25T07:11:38.857Z,695
2018-03-25T07:12:38.634Z,660
2018-03-25T07:13:38.125Z,635
2018-03-25T07:15:38.950Z,640
2018-03-25T07:16:53.378Z,635
2018-03-25T07:17:39.001Z,645
2018-03-25T07:18:38.770Z,650
2018-03-25T07:19:53.504Z,645
2018-03-25T07:20:39.077Z,645
2018-03-25T07:21:38.966Z,625
2018-03-25T07:22:38.958Z,650
2018-03-25T07:23:39.150Z,675
2018-03-25T07:25:08.506Z,685
2018-03-25T07:25:38.678Z,700
2018-03-25T07:26:53.917Z,705
2018-03-25T07:27:38.996Z,700
2018-03-25T07:28:39.029Z,685
2018-03-25T07:29:39.295Z,680
2018-03-25T07:30:39.061Z,665
2018-03-25T07:31:39.346Z,640
2018-03-25T07:32:38.854Z,645
2018-03-25T07:33:54.064Z,655
2018-03-25T07:34:39.421Z,650
2018-03-25T07:36:38.954Z,640
2018-03-25T07:37:54.155Z,655
2018-03-25T07:38:39.006Z,660
2018-03-25T07:39:53.947Z,650
2018-03-25T07:40:53.973Z,655
2018-03-25T07:41:39.078Z,635
2018-03-25T07:42:53.763Z,645
2018-03-25T07:43:54.106Z,645
2018-03-25T07:44:39.665Z,645
2018-03-25T07:45:39.568Z,650
2018-03-25T07:46:39.204Z,650
2018-03-25T07:47:39.744Z,650
2018-03-25T07:48:54.432Z,640
2018-03-25T07:50:39.561Z,650
2018-03-25T07:51:39.850Z,645
2018-03-25T07:52:39.867Z,640
2018-03-25T07:53:39.892Z,630
2018-03-25T07:54:39.657Z,620
2018-03-25T07:56:09.267Z,625
2018-03-25T07:56:39.970Z,630
2018-03-25T07:57:39.992Z,630
2018-03-25T07:58:39.766Z,615
2018-03-25T07:59:39.536Z,615
2018-03-25T08:00:40.101Z,630
2018-03-25T08:01:40.090Z,625
2018-03-25T08:02:40.126Z,615
2018-03-25T08:03:40.150Z,615
2018-03-25T08:04:39.911Z,615
2018-03-25T08:05:40.197Z,615
2018-03-25T08:06:39.701Z,620
2018-03-25T08:07:40.001Z,610
2018-03-25T08:08:39.748Z,595
2018-03-25T08:09:40.302Z,600
2018-03-25T08:10:39.803Z,600
2018-03-25T08:11:54.748Z,590
2018-03-25T08:12:40.106Z,590
2018-03-25T08:13:40.138Z,585
2018-03-25T08:14:40.415Z,585
2018-03-25T08:15:40.181Z,590
2018-03-25T08:16:40.208Z,580
2018-03-25T08:17:40.508Z,555
2018-03-25T08:18:40.262Z,545
2018-03-25T08:19:40.299Z,540
2018-03-25T08:20:54.966Z,535
2018-03-25T08:21:40.154Z,545
2018-03-25T08:22:40.110Z,540
2018-03-25T08:24:40.151Z,530
2018-03-25T08:25:40.431Z,530
2018-03-25T08:26:55.379Z,525
2018-03-25T08:28:09.802Z,510
2018-03-25T08:28:55.427Z,510
2018-03-25T08:29:55.194Z,500
2018-03-25T08:30:40.556Z,490
2018-03-25T08:31:40.849Z,490
2018-03-25T08:32:40.620Z,480
2018-03-25T08:33:55.607Z,480
2018-03-25T08:34:55.585Z,465
2018-03-25T08:35:40.941Z,470
2018-03-25T08:36:40.719Z,460
2018-03-25T08:37:40.472Z,450
2018-03-25T08:38:40.760Z,445
2018-03-25T08:39:40.783Z,435
2018-03-25T08:40:41.108Z,445
2018-03-25T08:41:41.091Z,430
2018-03-25T08:42:40.859Z,425
2018-03-25T08:43:55.540Z,425
2018-03-25T08:44:41.165Z,420
2018-03-25T08:45:41.192Z,425
2018-03-25T08:46:41.019Z,415
2018-03-25T08:47:41.252Z,415
2018-03-25T08:48:41.002Z,410
2018-03-25T08:49:41.356Z,405
2018-03-25T08:50:55.979Z,405
2018-03-25T08:51:41.082Z,400
2018-03-25T08:52:41.368Z,400
2018-03-25T08:53:41.180Z,405
2018-03-25T08:54:41.417Z,395
2018-03-25T08:55:41.257Z,405
2018-03-25T08:56:41.209Z,395
2018-03-25T08:57:40.975Z,405
2018-03-25T08:58:41.526Z,405
2018-03-25T08:59:56.205Z,405
2018-03-25T09:00:56.233Z,405
2018-03-25T09:01:41.349Z,405
2018-03-25T09:02:41.616Z,405
2018-03-25T09:03:41.377Z,400
2018-03-25T09:04:41.676Z,395
2018-03-25T09:05:41.429Z,400
2018-03-25T09:06:56.377Z,400
2018-03-25T09:07:41.740Z,395
2018-03-25T09:08:41.762Z,390
2018-03-25T09:09:55.931Z,395
2018-03-25T09:10:41.552Z,390
2018-03-25T09:11:41.585Z,385
2018-03-25T09:12:41.344Z,385
2018-03-25T09:13:41.379Z,380
2018-03-25T09:14:41.918Z,375
2018-03-25T09:15:56.598Z,370
2018-03-25T09:16:41.969Z,365
2018-03-25T09:17:56.647Z,365
2018-03-25T09:18:41.493Z,370
2018-03-25T09:19:56.439Z,355
2018-03-25T09:20:41.800Z,345
2018-03-25T09:21:41.841Z,340
2018-03-25T09:22:56.793Z,325
2018-03-25T09:23:42.141Z,310
2018-03-25T09:24:42.165Z,300
2018-03-25T09:25:41.949Z,290
2018-03-25T09:26:56.972Z,285
2018-03-25T09:27:41.980Z,285
2018-03-25T09:28:42.000Z,290
2018-03-25T09:29:56.687Z,285
2018-03-25T09:30:56.971Z,285
2018-03-25T09:31:56.735Z,280
2018-03-25T09:32:42.358Z,280
2018-03-25T09:33:42.132Z,280
2018-03-25T09:34:42.428Z,280
2018-03-25T09:35:41.917Z,280
2018-03-25T09:36:42.468Z,280
2018-03-25T09:37:41.968Z,280
2018-03-25T09:38:42.509Z,280
2018-03-25T09:39:42.538Z,275
2018-03-25T09:40:56.960Z,275
2018-03-25T09:41:42.586Z,270
2018-03-25T09:42:42.611Z,275
2018-03-25T09:43:57.037Z,270
2018-03-25T09:44:42.400Z,270
2018-03-25T09:45:42.422Z,270
2018-03-25T09:46:42.714Z,270
2018-03-25T09:47:42.480Z,270
2018-03-25T09:48:42.768Z,265
2018-03-25T09:49:42.538Z,265
2018-03-25T09:50:57.476Z,265
2018-03-25T09:51:42.841Z,265
2018-03-25T09:52:57.576Z,260
2018-03-25T09:53:42.631Z,260
2018-03-25T09:54:42.652Z,260
2018-03-25T09:55:42.940Z,260
2018-03-25T09:56:42.961Z,260
2018-03-25T09:57:42.981Z,265
2018-03-25T09:58:43.053Z,260
2018-03-25T09:59:43.029Z,255
2018-03-25T10:00:43.052Z,255
2018-03-25T10:01:42.564Z,255
2018-03-25T10:03:12.428Z,255
2018-03-25T10:03:42.874Z,255
2018-03-25T10:05:42.926Z,260
2018-03-25T10:06:42.948Z,260
2018-03-25T10:07:42.975Z,250
2018-03-25T10:08:43.262Z,250
2018-03-25T10:09:43.029Z,250
2018-03-25T10:10:42.527Z,250
2018-03-25T10:11:43.066Z,250
2018-03-25T10:12:58.009Z,250
2018-03-25T10:13:43.376Z,250
2018-03-25T10:14:42.886Z,250
2018-03-25T10:15:42.648Z,250
2018-03-25T10:16:43.243Z,250
2018-03-25T10:17:43.216Z,250
2018-03-25T10:20:43.290Z,245
2018-03-25T10:21:43.321Z,245
2018-03-25T10:22:43.350Z,245
2018-03-25T10:23:58.343Z,245
2018-03-25T10:24:43.660Z,245
2018-03-25T10:26:58.356Z,245
2018-03-25T10:27:43.480Z,240
2018-03-25T10:28:43.762Z,240
2018-03-25T10:29:43.542Z,235
2018-03-25T10:30:43.019Z,230
2018-03-25T10:31:43.563Z,230
2018-03-25T10:32:43.591Z,230
2018-03-25T10:33:43.349Z,220
2018-03-25T10:34:58.553Z,215
2018-03-25T10:36:43.527Z,210
2018-03-25T10:37:43.494Z,210
2018-03-25T10:39:43.765Z,210
2018-03-25T10:40:43.788Z,210
2018-03-25T10:41:44.059Z,205
2018-03-25T10:42:44.090Z,205
2018-03-25T10:43:44.212Z,205
2018-03-25T10:44:44.145Z,200
2018-03-25T10:45:43.901Z,200
2018-03-25T10:46:43.667Z,200
2018-03-25T10:47:44.250Z,195
2018-03-25T10:48:44.233Z,190
2018-03-25T10:49:44.359Z,190
2018-03-25T10:51:13.343Z,195
2018-03-25T10:51:43.521Z,190
2018-03-25T10:52:44.064Z,185
2018-03-25T10:54:44.373Z,180
2018-03-25T10:55:58.855Z,180
2018-03-25T10:56:44.418Z,175
2018-03-25T10:57:44.444Z,170
2018-03-25T10:58:58.863Z,170
2018-03-25T10:59:44.235Z,165
2018-03-25T11:00:44.252Z,165
2018-03-25T11:01:44.530Z,165
2018-03-25T11:02:44.299Z,165
2018-03-25T11:03:44.325Z,160
2018-03-25T11:04:44.808Z,160
2018-03-25T11:05:59.286Z,155
2018-03-25T11:06:44.652Z,155
2018-03-25T11:07:59.075Z,155
2018-03-25T11:08:44.443Z,150
2018-03-25T11:09:44.463Z,150
2018-03-25T11:10:44.744Z,150
2018-03-25T11:11:44.509Z,145
2018-03-25T11:12:44.528Z,145
2018-03-25T11:13:44.917Z,145
2018-03-25T11:14:44.317Z,145
2018-03-25T11:15:44.596Z,145
2018-03-25T11:16:44.883Z,145
2018-03-25T11:17:44.906Z,140
2018-03-25T11:18:44.930Z,140
2018-03-25T11:19:44.944Z,140
2018-03-25T11:20:44.973Z,140
2018-03-25T11:21:44.992Z,140
2018-03-25T11:22:44.755Z,140
2018-03-25T11:23:44.774Z,140
2018-03-25T11:24:44.907Z,140
2018-03-25T11:25:44.568Z,140
2018-03-25T11:26:44.843Z,140
2018-03-25T11:28:45.170Z,140
2018-03-25T11:29:59.573Z,140
2018-03-25T11:30:45.254Z,140
2018-03-25T11:31:45.229Z,140
2018-03-25T11:32:59.902Z,140
2018-03-25T11:33:44.486Z,140
2018-03-25T11:34:44.768Z,140
2018-03-25T11:35:45.053Z,140
2018-03-25T11:36:45.076Z,140
2018-03-25T11:38:00.018Z,140
2018-03-25T11:38:45.378Z,140
2018-03-25T11:39:59.537Z,140
2018-03-25T11:40:45.157Z,140
2018-03-25T11:41:45.442Z,140
2018-03-25T11:42:45.466Z,140
2018-03-25T11:43:45.226Z,140
2018-03-25T11:44:59.649Z,140
2018-03-25T11:45:45.317Z,140
2018-03-25T11:46:45.296Z,140
2018-03-25T11:47:45.344Z,140
2018-03-25T11:48:45.597Z,140
2018-03-25T11:49:45.622Z,140
2018-03-25T11:50:45.384Z,140
2018-03-25T11:51:45.141Z,140
2018-03-25T11:54:00.373Z,140
2018-03-25T11:55:44.715Z,140
2018-03-25T11:56:45.514Z,140
2018-03-25T11:58:45.818Z,140
2018-03-25T11:59:45.848Z,140
2018-03-25T12:00:45.872Z,140
2018-03-25T12:01:45.639Z,140
2018-03-25T12:02:45.651Z,140
2018-03-25T12:03:45.678Z,140
2018-03-25T12:04:45.691Z,140
2018-03-25T12:05:45.464Z,140
2018-03-25T12:06:45.737Z,140
2018-03-25T12:07:45.760Z,140
2018-03-25T12:10:15.379Z,140
2018-03-25T12:11:00.483Z,140
2018-03-25T12:12:00.764Z,140
2018-03-25T12:12:45.616Z,140
2018-03-25T12:13:45.372Z,140
2018-03-25T12:14:45.404Z,140
2018-03-25T12:15:45.418Z,140
2018-03-25T12:16:45.697Z,140
2018-03-25T12:17:45.459Z,140
2018-03-25T12:18:46.014Z,140
2018-03-25T12:19:46.286Z,140
2018-03-25T12:20:45.784Z,140
2018-03-25T12:21:45.807Z,140
2018-03-25T12:23:01.007Z,140
2018-03-25T12:23:46.368Z,140
2018-03-25T12:26:15.731Z,140
2018-03-25T12:27:46.463Z,140
2018-03-25T12:29:00.880Z,140
2018-03-25T12:29:45.721Z,140
2018-03-25T12:31:00.664Z,140
2018-03-25T12:31:46.549Z,140
2018-03-25T12:32:45.791Z,140
2018-03-25T12:33:45.816Z,140
2018-03-25T12:34:45.841Z,140
2018-03-25T12:35:46.372Z,140
2018-03-25T12:36:46.396Z,140
2018-03-25T12:37:46.420Z,140
2018-03-25T12:38:46.605Z,140
2018-03-25T12:39:46.719Z,140
2018-03-25T12:41:01.402Z,140
2018-03-25T12:41:46.766Z,140
2018-03-25T12:42:46.008Z,140
2018-03-25T12:43:46.817Z,140
2018-03-25T12:44:46.679Z,140
2018-03-25T12:45:46.887Z,140
2018-03-25T12:46:46.880Z,135
2018-03-25T12:47:46.383Z,140
2018-03-25T12:48:46.661Z,140
2018-03-25T12:49:46.936Z,140
2018-03-25T12:50:46.699Z,140
2018-03-25T12:51:46.724Z,140
2018-03-25T12:52:47.009Z,140
2018-03-25T12:53:46.774Z,140
2018-03-25T12:54:46.530Z,140
2018-03-25T12:55:47.073Z,140
2018-03-25T12:56:46.834Z,140
2018-03-25T12:57:46.604Z,140
2018-03-25T12:58:47.142Z,140
2018-03-25T12:59:47.170Z,140
2018-03-25T13:00:46.979Z,140
2018-03-25T13:01:47.087Z,140
2018-03-25T13:02:46.967Z,140
2018-03-25T13:03:46.992Z,140
2018-03-25T13:04:46.751Z,140
2018-03-25T13:05:47.033Z,140
2018-03-25T13:06:47.363Z,140
2018-03-25T13:07:47.406Z,140
2018-03-25T13:08:47.366Z,145
2018-03-25T13:09:47.120Z,145
2018-03-25T13:10:46.885Z,145
2018-03-25T13:11:46.908Z,145
2018-03-25T13:13:02.114Z,140
2018-03-25T13:13:47.316Z,140
2018-03-25T13:14:46.972Z,140
2018-03-25T13:15:47.516Z,140
2018-03-25T13:17:01.934Z,135
2018-03-25T13:17:47.299Z,135
2018-03-25T13:19:01.975Z,135
2018-03-25T13:19:47.600Z,135
2018-03-25T13:21:47.652Z,130
2018-03-25T13:22:47.409Z,130
2018-03-25T13:23:47.437Z,140
2018-03-25T13:24:47.709Z,135
2018-03-25T13:25:47.474Z,110
2018-03-25T13:26:47.497Z,105
2018-03-25T13:28:02.436Z,125
2018-03-25T13:29:02.665Z,135
2018-03-25T13:29:47.566Z,135
2018-03-25T13:30:47.836Z,135
2018-03-25T13:31:47.600Z,135
2018-03-25T13:32:47.886Z,130
2018-03-25T13:33:47.955Z,130
2018-03-25T13:34:48.187Z,135
2018-03-25T13:35:47.441Z,135
2018-03-25T13:36:47.717Z,135
2018-03-25T13:37:47.733Z,135
2018-03-25T13:38:48.012Z,135
2018-03-25T13:40:47.801Z,135
2018-03-25T13:41:47.820Z,135
2018-03-25T13:42:47.584Z,135
2018-03-25T13:43:48.122Z,135
2018-03-25T13:45:17.465Z,135
2018-03-25T13:45:47.918Z,135
2018-03-25T13:46:47.937Z,135
2018-03-25T13:47:47.700Z,110
2018-03-25T13:49:02.374Z,105
2018-03-25T13:49:48.000Z,110
2018-03-25T13:50:48.029Z,120
2018-03-25T13:51:48.047Z,100
2018-03-25T13:52:48.325Z,95
2018-03-25T13:54:48.106Z,95
2018-03-25T13:56:02.793Z,95
2018-03-25T13:56:48.149Z,95
2018-03-25T13:57:48.173Z,100
2018-03-25T13:58:47.938Z,115
2018-03-25T13:59:48.216Z,120
2018-03-25T14:01:03.016Z,125
2018-03-25T14:01:48.521Z,125
2018-03-25T14:02:48.279Z,125
2018-03-25T14:04:02.960Z,125
2018-03-25T14:04:48.585Z,105
2018-03-25T14:05:48.346Z,115
2018-03-25T14:06:48.377Z,120
2018-03-25T14:07:48.785Z,95
2018-03-25T14:08:47.633Z,100
2018-03-25T14:09:48.692Z,120
2018-03-25T14:10:48.204Z,120
2018-03-25T14:11:48.221Z,120
2018-03-25T14:12:48.502Z,105
2018-03-25T14:13:48.791Z,100
2018-03-25T14:14:48.538Z,110
2018-03-25T14:16:03.486Z,115
2018-03-25T14:17:03.244Z,115
2018-03-25T14:17:48.084Z,90
2018-03-25T14:19:03.289Z,90
2018-03-25T14:20:48.941Z,90
2018-03-25T14:21:48.961Z,90
2018-03-25T14:22:48.456Z,90
2018-03-25T14:23:48.993Z,90
2018-03-25T14:24:48.854Z,90
2018-03-25T14:25:49.046Z,90
2018-03-25T14:26:48.548Z,90
2018-03-25T14:27:49.079Z,90
2018-03-25T14:29:03.508Z,90
2018-03-25T14:29:48.692Z,100
2018-03-25T14:30:49.140Z,90
2018-03-25T14:31:48.678Z,90
2018-03-25T14:32:48.928Z,90
2018-03-25T14:33:48.694Z,90
2018-03-25T14:34:49.230Z,100
2018-03-25T14:35:49.254Z,110
2018-03-25T14:36:49.017Z,115
2018-03-25T14:37:48.790Z,115
2018-03-25T14:39:03.715Z,105
2018-03-25T14:39:49.384Z,105
2018-03-25T14:40:48.841Z,105
2018-03-25T14:41:49.430Z,105
2018-03-25T14:42:49.149Z,110
2018-03-25T14:43:49.168Z,110
2018-03-25T14:45:04.110Z,110
2018-03-25T14:45:48.949Z,105
2018-03-25T14:46:49.226Z,105
2018-03-25T14:48:04.166Z,105
2018-03-25T14:49:03.935Z,105
2018-03-25T14:49:49.035Z,105
2018-03-25T14:51:03.972Z,105
2018-03-25T14:52:03.994Z,105
2018-03-25T14:52:49.361Z,100